sensor_id;sensor_type;location;lat;lon;timestamp;P1;durP1;ratioP1;P2;durP2;ratioP2
56599;SDS011;51832;48.152;11.530;2024-01-11T00:05:00;37.75;;;14.60;;
56599;SDS011;51832;48.152;11.530;2024-01-11T00:10:01;49.85;;;15.98;;
56599;SDS011;51832;48.152;11.530;2024-01-11T00:15:03;36.22;;;13.65;;
56599;SDS011;51832;48.152;11.530;2024-01-11T00:20:04;52.38;;;16.05;;
56599;SDS011;51832;48.152;11.530;2024-01-11T00:25:05;39.13;;;14.43;;
56599;SDS011;51832;48.152;11.530;2024-01-11T00:30:07;40.33;;;13.88;;
56599;SDS011;51832;48.152;11.530;2024-01-11T00:35:07;44.20;;;13.38;;
56599;SDS011;51832;48.152;11.530;2024-01-11T00:40:08;50.65;;;14.60;;
56599;SDS011;51832;48.152;11.530;2024-01-11T00:45:09;44.28;;;14.05;;
56599;SDS011;51832;48.152;11.530;2024-01-11T00:50:10;45.10;;;14.20;;
56599;SDS011;51832;48.152;11.530;2024-01-11T00:55:10;42.47;;;13.38;;
56599;SDS011;51832;48.152;11.530;2024-01-11T01:00:11;41.22;;;14.15;;
56599;SDS011;51832;48.152;11.530;2024-01-11T01:05:15;38.85;;;12.23;;
56599;SDS011;51832;48.152;11.530;2024-01-11T01:10:15;47.42;;;14.05;;
56599;SDS011;51832;48.152;11.530;2024-01-11T01:15:15;43.58;;;13.02;;
56599;SDS011;51832;48.152;11.530;2024-01-11T01:20:16;38.03;;;12.15;;
56599;SDS011;51832;48.152;11.530;2024-01-11T01:25:16;40.85;;;13.80;;
56599;SDS011;51832;48.152;11.530;2024-01-11T01:30:17;41.33;;;13.75;;
56599;SDS011;51832;48.152;11.530;2024-01-11T01:35:17;39.03;;;15.10;;
56599;SDS011;51832;48.152;11.530;2024-01-11T01:40:18;41.55;;;15.30;;
56599;SDS011;51832;48.152;11.530;2024-01-11T01:45:18;46.03;;;14.63;;
56599;SDS011;51832;48.152;11.530;2024-01-11T01:50:19;40.83;;;14.23;;
56599;SDS011;51832;48.152;11.530;2024-01-11T01:55:20;44.25;;;15.40;;
56599;SDS011;51832;48.152;11.530;2024-01-11T02:00:22;45.25;;;14.30;;
56599;SDS011;51832;48.152;11.530;2024-01-11T02:05:23;45.78;;;13.35;;
56599;SDS011;51832;48.152;11.530;2024-01-11T02:10:24;41.55;;;13.68;;
56599;SDS011;51832;48.152;11.530;2024-01-11T02:15:24;39.95;;;15.07;;
56599;SDS011;51832;48.152;11.530;2024-01-11T02:20:25;43.35;;;14.45;;
56599;SDS011;51832;48.152;11.530;2024-01-11T02:25:26;42.45;;;13.57;;
56599;SDS011;51832;48.152;11.530;2024-01-11T02:30:26;51.92;;;15.73;;
56599;SDS011;51832;48.152;11.530;2024-01-11T02:35:27;42.60;;;14.02;;
56599;SDS011;51832;48.152;11.530;2024-01-11T02:40:28;42.30;;;14.63;;
56599;SDS011;51832;48.152;11.530;2024-01-11T02:45:29;43.45;;;12.63;;
56599;SDS011;51832;48.152;11.530;2024-01-11T02:50:30;38.10;;;14.25;;
56599;SDS011;51832;48.152;11.530;2024-01-11T02:55:30;35.42;;;11.52;;
56599;SDS011;51832;48.152;11.530;2024-01-11T03:00:31;36.17;;;12.85;;
56599;SDS011;51832;48.152;11.530;2024-01-11T03:05:31;29.42;;;12.07;;
56599;SDS011;51832;48.152;11.530;2024-01-11T03:10:32;30.13;;;11.75;;
56599;SDS011;51832;48.152;11.530;2024-01-11T03:15:32;27.70;;;10.70;;
56599;SDS011;51832;48.152;11.530;2024-01-11T03:20:33;38.28;;;12.15;;
56599;SDS011;51832;48.152;11.530;2024-01-11T03:25:34;32.67;;;12.00;;
56599;SDS011;51832;48.152;11.530;2024-01-11T03:30:34;32.97;;;11.77;;
56599;SDS011;51832;48.152;11.530;2024-01-11T03:35:35;33.60;;;12.32;;
56599;SDS011;51832;48.152;11.530;2024-01-11T03:40:38;30.48;;;12.10;;
56599;SDS011;51832;48.152;11.530;2024-01-11T03:45:39;31.83;;;11.85;;
56599;SDS011;51832;48.152;11.530;2024-01-11T03:50:39;31.88;;;12.25;;
56599;SDS011;51832;48.152;11.530;2024-01-11T03:55:40;35.38;;;13.18;;
56599;SDS011;51832;48.152;11.530;2024-01-11T04:00:40;37.60;;;12.90;;
56599;SDS011;51832;48.152;11.530;2024-01-11T04:05:41;34.67;;;12.50;;
56599;SDS011;51832;48.152;11.530;2024-01-11T04:10:41;27.08;;;9.65;;
56599;SDS011;51832;48.152;11.530;2024-01-11T04:15:42;33.03;;;12.65;;
56599;SDS011;51832;48.152;11.530;2024-01-11T04:20:42;35.40;;;13.35;;
56599;SDS011;51832;48.152;11.530;2024-01-11T04:25:43;31.05;;;13.63;;
56599;SDS011;51832;48.152;11.530;2024-01-11T04:30:43;31.77;;;15.13;;
56599;SDS011;51832;48.152;11.530;2024-01-11T04:35:44;32.03;;;13.40;;
56599;SDS011;51832;48.152;11.530;2024-01-11T04:40:44;32.10;;;13.35;;
56599;SDS011;51832;48.152;11.530;2024-01-11T04:45:45;35.90;;;14.02;;
56599;SDS011;51832;48.152;11.530;2024-01-11T04:50:45;32.28;;;12.85;;
56599;SDS011;51832;48.152;11.530;2024-01-11T04:55:46;28.65;;;12.50;;
56599;SDS011;51832;48.152;11.530;2024-01-11T05:00:47;37.95;;;13.82;;
56599;SDS011;51832;48.152;11.530;2024-01-11T05:05:47;38.20;;;15.23;;
56599;SDS011;51832;48.152;11.530;2024-01-11T05:10:48;40.10;;;14.45;;
56599;SDS011;51832;48.152;11.530;2024-01-11T05:15:48;39.00;;;15.52;;
56599;SDS011;51832;48.152;11.530;2024-01-11T05:20:49;41.53;;;15.63;;
56599;SDS011;51832;48.152;11.530;2024-01-11T05:25:49;41.53;;;14.57;;
56599;SDS011;51832;48.152;11.530;2024-01-11T05:30:49;43.13;;;14.60;;
56599;SDS011;51832;48.152;11.530;2024-01-11T05:35:50;43.72;;;15.88;;
56599;SDS011;51832;48.152;11.530;2024-01-11T05:40:50;39.55;;;14.50;;
56599;SDS011;51832;48.152;11.530;2024-01-11T05:45:51;46.40;;;17.88;;
56599;SDS011;51832;48.152;11.530;2024-01-11T05:50:52;41.50;;;15.85;;
56599;SDS011;51832;48.152;11.530;2024-01-11T05:55:52;37.17;;;13.98;;
56599;SDS011;51832;48.152;11.530;2024-01-11T06:00:53;36.53;;;12.93;;
56599;SDS011;51832;48.152;11.530;2024-01-11T06:05:55;45.30;;;15.10;;
56599;SDS011;51832;48.152;11.530;2024-01-11T06:10:56;38.33;;;14.15;;
56599;SDS011;51832;48.152;11.530;2024-01-11T06:15:57;36.25;;;14.27;;
56599;SDS011;51832;48.152;11.530;2024-01-11T06:20:57;40.10;;;15.40;;
56599;SDS011;51832;48.152;11.530;2024-01-11T06:25:58;42.13;;;15.95;;
56599;SDS011;51832;48.152;11.530;2024-01-11T06:30:58;44.20;;;16.23;;
56599;SDS011;51832;48.152;11.530;2024-01-11T06:35:59;44.53;;;15.65;;
56599;SDS011;51832;48.152;11.530;2024-01-11T06:40:59;42.35;;;15.02;;
56599;SDS011;51832;48.152;11.530;2024-01-11T06:46:03;49.90;;;14.77;;
56599;SDS011;51832;48.152;11.530;2024-01-11T06:51:04;40.65;;;14.75;;
56599;SDS011;51832;48.152;11.530;2024-01-11T06:56:13;42.42;;;14.80;;
56599;SDS011;51832;48.152;11.530;2024-01-11T07:01:17;43.25;;;15.10;;
56599;SDS011;51832;48.152;11.530;2024-01-11T07:06:18;38.60;;;14.73;;
56599;SDS011;51832;48.152;11.530;2024-01-11T07:11:18;39.25;;;16.48;;
56599;SDS011;51832;48.152;11.530;2024-01-11T07:16:19;34.60;;;13.30;;
56599;SDS011;51832;48.152;11.530;2024-01-11T07:21:23;32.60;;;12.85;;
56599;SDS011;51832;48.152;11.530;2024-01-11T07:26:31;36.03;;;13.15;;
56599;SDS011;51832;48.152;11.530;2024-01-11T07:31:31;31.33;;;12.07;;
56599;SDS011;51832;48.152;11.530;2024-01-11T07:36:32;28.13;;;11.35;;
56599;SDS011;51832;48.152;11.530;2024-01-11T07:41:32;27.25;;;11.15;;
56599;SDS011;51832;48.152;11.530;2024-01-11T07:46:33;30.10;;;10.82;;
56599;SDS011;51832;48.152;11.530;2024-01-11T07:51:33;35.00;;;11.95;;
56599;SDS011;51832;48.152;11.530;2024-01-11T08:01:36;29.15;;;11.75;;
56599;SDS011;51832;48.152;11.530;2024-01-11T08:06:37;28.80;;;12.13;;
56599;SDS011;51832;48.152;11.530;2024-01-11T08:11:37;28.08;;;11.27;;
56599;SDS011;51832;48.152;11.530;2024-01-11T08:16:38;33.55;;;11.77;;
56599;SDS011;51832;48.152;11.530;2024-01-11T08:21:39;28.27;;;12.57;;
56599;SDS011;51832;48.152;11.530;2024-01-11T08:26:40;28.33;;;11.68;;
56599;SDS011;51832;48.152;11.530;2024-01-11T08:31:40;35.45;;;11.82;;
56599;SDS011;51832;48.152;11.530;2024-01-11T08:36:43;30.20;;;12.82;;
56599;SDS011;51832;48.152;11.530;2024-01-11T08:41:44;33.50;;;12.93;;
56599;SDS011;51832;48.152;11.530;2024-01-11T08:46:44;31.83;;;11.57;;
56599;SDS011;51832;48.152;11.530;2024-01-11T08:51:45;40.22;;;15.38;;
56599;SDS011;51832;48.152;11.530;2024-01-11T08:56:45;37.50;;;13.68;;
56599;SDS011;51832;48.152;11.530;2024-01-11T09:01:45;44.03;;;15.80;;
56599;SDS011;51832;48.152;11.530;2024-01-11T09:06:46;53.30;;;20.13;;
56599;SDS011;51832;48.152;11.530;2024-01-11T09:11:46;62.10;;;19.92;;
56599;SDS011;51832;48.152;11.530;2024-01-11T09:16:47;62.03;;;20.25;;
56599;SDS011;51832;48.152;11.530;2024-01-11T09:21:49;56.05;;;19.10;;
56599;SDS011;51832;48.152;11.530;2024-01-11T09:26:49;64.50;;;19.33;;
56599;SDS011;51832;48.152;11.530;2024-01-11T09:31:50;53.50;;;18.58;;
56599;SDS011;51832;48.152;11.530;2024-01-11T09:36:50;59.72;;;18.42;;
56599;SDS011;51832;48.152;11.530;2024-01-11T09:41:52;51.95;;;18.45;;
56599;SDS011;51832;48.152;11.530;2024-01-11T09:46:59;54.58;;;19.38;;
56599;SDS011;51832;48.152;11.530;2024-01-11T09:52:02;57.05;;;18.30;;
56599;SDS011;51832;48.152;11.530;2024-01-11T09:57:03;48.50;;;17.30;;
56599;SDS011;51832;48.152;11.530;2024-01-11T10:02:05;61.17;;;19.27;;
56599;SDS011;51832;48.152;11.530;2024-01-11T10:07:09;48.72;;;19.42;;
56599;SDS011;51832;48.152;11.530;2024-01-11T10:12:10;53.38;;;18.73;;
56599;SDS011;51832;48.152;11.530;2024-01-11T10:17:11;55.28;;;18.55;;
56599;SDS011;51832;48.152;11.530;2024-01-11T10:22:11;50.75;;;17.25;;
56599;SDS011;51832;48.152;11.530;2024-01-11T10:27:17;51.53;;;18.90;;
56599;SDS011;51832;48.152;11.530;2024-01-11T10:32:17;57.28;;;19.20;;
56599;SDS011;51832;48.152;11.530;2024-01-11T10:37:18;57.53;;;19.17;;
56599;SDS011;51832;48.152;11.530;2024-01-11T10:42:18;52.95;;;19.67;;
56599;SDS011;51832;48.152;11.530;2024-01-11T10:47:23;55.63;;;17.23;;
56599;SDS011;51832;48.152;11.530;2024-01-11T10:52:32;54.40;;;18.60;;
56599;SDS011;51832;48.152;11.530;2024-01-11T10:57:40;52.85;;;18.13;;
56599;SDS011;51832;48.152;11.530;2024-01-11T11:02:41;53.47;;;18.58;;
56599;SDS011;51832;48.152;11.530;2024-01-11T11:07:43;55.33;;;18.90;;
56599;SDS011;51832;48.152;11.530;2024-01-11T11:12:45;55.75;;;18.25;;
56599;SDS011;51832;48.152;11.530;2024-01-11T11:17:46;52.05;;;17.65;;
56599;SDS011;51832;48.152;11.530;2024-01-11T11:23:05;59.03;;;18.95;;
56599;SDS011;51832;48.152;11.530;2024-01-11T11:28:07;49.13;;;17.48;;
56599;SDS011;51832;48.152;11.530;2024-01-11T11:33:11;56.47;;;18.58;;
56599;SDS011;51832;48.152;11.530;2024-01-11T11:38:17;54.17;;;18.15;;
56599;SDS011;51832;48.152;11.530;2024-01-11T11:43:19;55.83;;;19.13;;
56599;SDS011;51832;48.152;11.530;2024-01-11T11:53:37;52.72;;;17.08;;
56599;SDS011;51832;48.152;11.530;2024-01-11T11:58:38;56.90;;;20.08;;
56599;SDS011;51832;48.152;11.530;2024-01-11T12:03:40;48.80;;;17.33;;
56599;SDS011;51832;48.152;11.530;2024-01-11T12:08:44;53.78;;;18.73;;
56599;SDS011;51832;48.152;11.530;2024-01-11T12:13:47;54.60;;;19.40;;
56599;SDS011;51832;48.152;11.530;2024-01-11T12:18:48;63.87;;;22.93;;
56599;SDS011;51832;48.152;11.530;2024-01-11T12:23:49;54.90;;;18.85;;
56599;SDS011;51832;48.152;11.530;2024-01-11T12:28:50;59.63;;;21.55;;
56599;SDS011;51832;48.152;11.530;2024-01-11T12:33:51;54.13;;;19.23;;
56599;SDS011;51832;48.152;11.530;2024-01-11T12:38:52;56.78;;;19.88;;
56599;SDS011;51832;48.152;11.530;2024-01-11T12:43:53;53.47;;;18.48;;
56599;SDS011;51832;48.152;11.530;2024-01-11T12:48:53;52.80;;;19.08;;
56599;SDS011;51832;48.152;11.530;2024-01-11T12:53:54;60.17;;;20.88;;
56599;SDS011;51832;48.152;11.530;2024-01-11T12:59:07;59.22;;;21.13;;
56599;SDS011;51832;48.152;11.530;2024-01-11T13:04:09;54.25;;;19.70;;
56599;SDS011;51832;48.152;11.530;2024-01-11T13:09:10;49.65;;;19.30;;
56599;SDS011;51832;48.152;11.530;2024-01-11T13:14:11;52.88;;;20.83;;
56599;SDS011;51832;48.152;11.530;2024-01-11T13:19:18;47.97;;;18.52;;
56599;SDS011;51832;48.152;11.530;2024-01-11T13:24:20;50.30;;;20.08;;
56599;SDS011;51832;48.152;11.530;2024-01-11T13:29:20;49.90;;;21.38;;
56599;SDS011;51832;48.152;11.530;2024-01-11T13:34:22;49.10;;;20.60;;
56599;SDS011;51832;48.152;11.530;2024-01-11T13:39:23;57.50;;;20.48;;
56599;SDS011;51832;48.152;11.530;2024-01-11T13:44:25;61.13;;;21.52;;
56599;SDS011;51832;48.152;11.530;2024-01-11T13:49:25;60.10;;;22.15;;
56599;SDS011;51832;48.152;11.530;2024-01-11T13:54:26;53.20;;;20.60;;
56599;SDS011;51832;48.152;11.530;2024-01-11T13:59:27;50.08;;;20.25;;
56599;SDS011;51832;48.152;11.530;2024-01-11T14:04:27;52.38;;;19.67;;
56599;SDS011;51832;48.152;11.530;2024-01-11T14:09:28;56.67;;;20.60;;
56599;SDS011;51832;48.152;11.530;2024-01-11T14:14:31;55.15;;;20.90;;
56599;SDS011;51832;48.152;11.530;2024-01-11T14:19:32;66.88;;;21.50;;
56599;SDS011;51832;48.152;11.530;2024-01-11T14:24:32;53.90;;;21.75;;
56599;SDS011;51832;48.152;11.530;2024-01-11T14:29:33;55.17;;;20.40;;
56599;SDS011;51832;48.152;11.530;2024-01-11T14:34:34;62.67;;;20.98;;
56599;SDS011;51832;48.152;11.530;2024-01-11T14:39:34;58.63;;;21.48;;
56599;SDS011;51832;48.152;11.530;2024-01-11T14:44:35;61.30;;;21.08;;
56599;SDS011;51832;48.152;11.530;2024-01-11T14:49:36;64.15;;;22.15;;
56599;SDS011;51832;48.152;11.530;2024-01-11T14:54:37;52.60;;;19.15;;
56599;SDS011;51832;48.152;11.530;2024-01-11T14:59:38;63.28;;;21.58;;
56599;SDS011;51832;48.152;11.530;2024-01-11T15:04:38;65.88;;;22.92;;
56599;SDS011;51832;48.152;11.530;2024-01-11T15:09:39;63.13;;;22.67;;
56599;SDS011;51832;48.152;11.530;2024-01-11T15:14:39;64.57;;;22.70;;
56599;SDS011;51832;48.152;11.530;2024-01-11T15:19:40;53.60;;;20.08;;
56599;SDS011;51832;48.152;11.530;2024-01-11T15:24:40;57.38;;;20.50;;
56599;SDS011;51832;48.152;11.530;2024-01-11T15:29:42;63.50;;;23.52;;
56599;SDS011;51832;48.152;11.530;2024-01-11T15:34:43;62.20;;;22.75;;
56599;SDS011;51832;48.152;11.530;2024-01-11T15:39:43;59.35;;;21.35;;
56599;SDS011;51832;48.152;11.530;2024-01-11T15:44:44;57.65;;;20.70;;
56599;SDS011;51832;48.152;11.530;2024-01-11T15:49:45;72.88;;;23.30;;
56599;SDS011;51832;48.152;11.530;2024-01-11T15:54:46;66.00;;;22.83;;
56599;SDS011;51832;48.152;11.530;2024-01-11T15:59:46;56.30;;;20.38;;
56599;SDS011;51832;48.152;11.530;2024-01-11T16:04:47;60.88;;;23.50;;
56599;SDS011;51832;48.152;11.530;2024-01-11T16:09:47;65.88;;;20.13;;
56599;SDS011;51832;48.152;11.530;2024-01-11T16:14:49;60.15;;;21.70;;
56599;SDS011;51832;48.152;11.530;2024-01-11T16:19:51;61.85;;;20.92;;
56599;SDS011;51832;48.152;11.530;2024-01-11T16:24:51;59.10;;;21.75;;
56599;SDS011;51832;48.152;11.530;2024-01-11T16:29:52;63.17;;;23.40;;
56599;SDS011;51832;48.152;11.530;2024-01-11T16:34:52;63.75;;;22.85;;
56599;SDS011;51832;48.152;11.530;2024-01-11T16:39:53;67.40;;;22.55;;
56599;SDS011;51832;48.152;11.530;2024-01-11T16:44:53;61.90;;;22.13;;
56599;SDS011;51832;48.152;11.530;2024-01-11T16:49:54;66.78;;;22.15;;
56599;SDS011;51832;48.152;11.530;2024-01-11T16:54:54;60.88;;;21.98;;
56599;SDS011;51832;48.152;11.530;2024-01-11T16:59:55;65.57;;;21.70;;
56599;SDS011;51832;48.152;11.530;2024-01-11T17:04:55;67.78;;;22.83;;
56599;SDS011;51832;48.152;11.530;2024-01-11T17:09:56;63.38;;;21.52;;
56599;SDS011;51832;48.152;11.530;2024-01-11T17:14:56;64.97;;;22.58;;
56599;SDS011;51832;48.152;11.530;2024-01-11T17:19:57;65.47;;;22.98;;
56599;SDS011;51832;48.152;11.530;2024-01-11T17:24:57;68.00;;;21.77;;
56599;SDS011;51832;48.152;11.530;2024-01-11T17:29:58;70.43;;;23.48;;
56599;SDS011;51832;48.152;11.530;2024-01-11T17:34:58;73.15;;;23.67;;
56599;SDS011;51832;48.152;11.530;2024-01-11T17:39:59;65.00;;;24.08;;
56599;SDS011;51832;48.152;11.530;2024-01-11T17:44:59;61.30;;;22.55;;
56599;SDS011;51832;48.152;11.530;2024-01-11T17:50:00;74.25;;;22.92;;
56599;SDS011;51832;48.152;11.530;2024-01-11T17:55:01;69.45;;;21.38;;
56599;SDS011;51832;48.152;11.530;2024-01-11T18:00:05;64.78;;;21.77;;
56599;SDS011;51832;48.152;11.530;2024-01-11T18:05:06;67.68;;;21.10;;
56599;SDS011;51832;48.152;11.530;2024-01-11T18:10:07;58.20;;;20.65;;
56599;SDS011;51832;48.152;11.530;2024-01-11T18:15:08;70.78;;;20.42;;
56599;SDS011;51832;48.152;11.530;2024-01-11T18:20:10;62.08;;;20.88;;
56599;SDS011;51832;48.152;11.530;2024-01-11T18:25:10;60.75;;;19.23;;
56599;SDS011;51832;48.152;11.530;2024-01-11T18:30:11;54.50;;;18.38;;
56599;SDS011;51832;48.152;11.530;2024-01-11T18:35:12;59.95;;;19.40;;
56599;SDS011;51832;48.152;11.530;2024-01-11T18:40:13;54.22;;;18.02;;
56599;SDS011;51832;48.152;11.530;2024-01-11T18:45:14;46.78;;;17.83;;
56599;SDS011;51832;48.152;11.530;2024-01-11T18:50:14;51.92;;;17.92;;
56599;SDS011;51832;48.152;11.530;2024-01-11T18:55:15;66.20;;;17.27;;
56599;SDS011;51832;48.152;11.530;2024-01-11T19:00:17;61.53;;;18.83;;
56599;SDS011;51832;48.152;11.530;2024-01-11T19:05:18;59.17;;;19.63;;
56599;SDS011;51832;48.152;11.530;2024-01-11T19:10:19;52.60;;;19.40;;
56599;SDS011;51832;48.152;11.530;2024-01-11T19:15:19;59.58;;;18.10;;
56599;SDS011;51832;48.152;11.530;2024-01-11T19:20:20;55.65;;;17.35;;
56599;SDS011;51832;48.152;11.530;2024-01-11T19:25:20;55.80;;;17.20;;
56599;SDS011;51832;48.152;11.530;2024-01-11T19:30:21;46.47;;;16.85;;
56599;SDS011;51832;48.152;11.530;2024-01-11T19:35:21;48.08;;;17.10;;
56599;SDS011;51832;48.152;11.530;2024-01-11T19:40:22;46.90;;;17.33;;
56599;SDS011;51832;48.152;11.530;2024-01-11T19:45:23;43.75;;;16.27;;
56599;SDS011;51832;48.152;11.530;2024-01-11T19:50:24;51.33;;;15.55;;
56599;SDS011;51832;48.152;11.530;2024-01-11T19:55:24;48.83;;;15.85;;
56599;SDS011;51832;48.152;11.530;2024-01-11T20:00:25;43.78;;;16.23;;
56599;SDS011;51832;48.152;11.530;2024-01-11T20:05:27;55.63;;;16.02;;
56599;SDS011;51832;48.152;11.530;2024-01-11T20:10:27;48.58;;;15.52;;
56599;SDS011;51832;48.152;11.530;2024-01-11T20:15:28;38.97;;;13.95;;
56599;SDS011;51832;48.152;11.530;2024-01-11T20:20:29;40.67;;;12.80;;
56599;SDS011;51832;48.152;11.530;2024-01-11T20:25:30;47.38;;;15.57;;
56599;SDS011;51832;48.152;11.530;2024-01-11T20:30:30;46.20;;;14.73;;
56599;SDS011;51832;48.152;11.530;2024-01-11T20:35:31;43.85;;;15.05;;
56599;SDS011;51832;48.152;11.530;2024-01-11T20:40:32;49.65;;;16.45;;
56599;SDS011;51832;48.152;11.530;2024-01-11T20:45:33;44.70;;;14.38;;
56599;SDS011;51832;48.152;11.530;2024-01-11T20:50:33;41.97;;;15.27;;
56599;SDS011;51832;48.152;11.530;2024-01-11T20:55:33;49.15;;;16.15;;
56599;SDS011;51832;48.152;11.530;2024-01-11T21:00:34;45.17;;;15.13;;
56599;SDS011;51832;48.152;11.530;2024-01-11T21:05:34;38.50;;;13.73;;
56599;SDS011;51832;48.152;11.530;2024-01-11T21:10:35;39.05;;;12.40;;
56599;SDS011;51832;48.152;11.530;2024-01-11T21:15:35;41.40;;;13.77;;
56599;SDS011;51832;48.152;11.530;2024-01-11T21:20:40;37.90;;;15.05;;
56599;SDS011;51832;48.152;11.530;2024-01-11T21:25:43;45.60;;;13.55;;
56599;SDS011;51832;48.152;11.530;2024-01-11T21:30:43;43.00;;;14.75;;
56599;SDS011;51832;48.152;11.530;2024-01-11T21:35:44;37.28;;;14.48;;
56599;SDS011;51832;48.152;11.530;2024-01-11T21:40:45;31.58;;;13.60;;
56599;SDS011;51832;48.152;11.530;2024-01-11T21:45:46;35.38;;;12.75;;
56599;SDS011;51832;48.152;11.530;2024-01-11T21:50:46;39.03;;;13.07;;
56599;SDS011;51832;48.152;11.530;2024-01-11T21:55:47;42.50;;;14.98;;
56599;SDS011;51832;48.152;11.530;2024-01-11T22:00:49;37.93;;;13.73;;
56599;SDS011;51832;48.152;11.530;2024-01-11T22:05:55;40.67;;;14.15;;
56599;SDS011;51832;48.152;11.530;2024-01-11T22:10:55;47.20;;;15.27;;
56599;SDS011;51832;48.152;11.530;2024-01-11T22:15:56;43.58;;;14.65;;
56599;SDS011;51832;48.152;11.530;2024-01-11T22:20:56;44.38;;;14.98;;
56599;SDS011;51832;48.152;11.530;2024-01-11T22:25:57;44.55;;;13.73;;
56599;SDS011;51832;48.152;11.530;2024-01-11T22:30:57;35.35;;;13.88;;
56599;SDS011;51832;48.152;11.530;2024-01-11T22:35:58;39.58;;;13.15;;
56599;SDS011;51832;48.152;11.530;2024-01-11T22:40:58;43.88;;;14.52;;
56599;SDS011;51832;48.152;11.530;2024-01-11T22:45:59;41.63;;;13.88;;
56599;SDS011;51832;48.152;11.530;2024-01-11T22:50:59;44.08;;;14.23;;
56599;SDS011;51832;48.152;11.530;2024-01-11T22:56:00;44.05;;;14.90;;
56599;SDS011;51832;48.152;11.530;2024-01-11T23:01:00;43.08;;;14.52;;
56599;SDS011;51832;48.152;11.530;2024-01-11T23:06:01;40.88;;;13.98;;
56599;SDS011;51832;48.152;11.530;2024-01-11T23:11:01;33.67;;;13.35;;
56599;SDS011;51832;48.152;11.530;2024-01-11T23:16:03;39.28;;;14.40;;
56599;SDS011;51832;48.152;11.530;2024-01-11T23:21:04;34.13;;;11.93;;
56599;SDS011;51832;48.152;11.530;2024-01-11T23:26:04;38.95;;;12.88;;
56599;SDS011;51832;48.152;11.530;2024-01-11T23:31:05;29.65;;;12.45;;
56599;SDS011;51832;48.152;11.530;2024-01-11T23:36:08;40.88;;;12.70;;
56599;SDS011;51832;48.152;11.530;2024-01-11T23:41:09;36.88;;;11.80;;
56599;SDS011;51832;48.152;11.530;2024-01-11T23:46:09;37.63;;;12.88;;
56599;SDS011;51832;48.152;11.530;2024-01-11T23:51:10;28.45;;;11.20;;
56599;SDS011;51832;48.152;11.530;2024-01-11T23:56:10;31.67;;;12.48;;
